Etusivu
METAR-TAF:

METAR-TAF

Lentoasemat :

Chhatrapati Shivajin kansainvälinen lentoasema

Mumbai, Intia

Leveyspiiri: 19-07N, Pituuspiiri: 072-51E, korkeus merenpinnasta: 8 m

Tämänhetkinen sää

Tämä raportti tehtiin 27 minuuttia sitten, kello 15.00 UTC
Tuuli 6 kn pohjoisesta
Lämpötila 31°C
Kosteus 36%
Ilmanpaine 1009 hPa
Näkyvyys: 4000 m
savua

METAR: VABB 271500Z 01006KT 4000 FU NSC 31/14 Q1009 NOSIG

Aika: 20:57 (15:27 UTC)

Sääennuste

Tämä raportti tehtiin 1 tunti ja 27 minuuttia sitten, kello 14.00 UTC
Ennuste voimassa 27. päivästä klo 15 UTC - 27. päivään klo 24 UTC
Tuuli 5 kn pohjoisen/luoteesta
Näkyvyys: 3000 m
savua
Tulossa
27. päivästä klo 12 UTC - 27. päivään klo 20 UTC
Tuuli 5 kn pohjoisesta/koillisesta

TAF: VABB 271400Z 2715/2724 34005KT 3000 FU NSC BECMG 2712/2720 02005KT

Säähavainnot ja -ennusteet yli 4000 lentoasemalta (METAR- ja TAF-raportit).

Käytössä olevat sääasemat on merkitty karttaan keltaisilla ja punaisilla pisteillä.

Aseta hiiri pisteen päälle nähdäksesi sääaseman nimen.

Klikkaa sitten nähdäksesi säähavainnot ja -ennusteet.

Kartan vaihtaminen: klikkaa mustalla rastilla varustettuja vihreitä pisteitä, niin voit zoomata sisään; viivalla varustettua vihreää pistettä, niin voit zoomata ulos tai vihreitä nuolia, niin pääset viereisille kartoille.


METAR-TAF: